sensor_id;sensor_type;location;lat;lon;timestamp;temperature;humidity
55771;DHT22;41687;-33.234;-60.334;2022-08-19T00:01:35;8.20;41.60
55771;DHT22;41687;-33.234;-60.334;2022-08-19T00:04:06;8.20;41.10
55771;DHT22;41687;-33.234;-60.334;2022-08-19T00:06:36;8.20;41.90
55771;DHT22;41687;-33.234;-60.334;2022-08-19T00:09:07;8.20;41.80
55771;DHT22;41687;-33.234;-60.334;2022-08-19T00:11:36;8.10;41.80
55771;DHT22;41687;-33.234;-60.334;2022-08-19T00:14:06;8.00;41.80
55771;DHT22;41687;-33.234;-60.334;2022-08-19T00:16:38;8.00;41.50
55771;DHT22;41687;-33.234;-60.334;2022-08-19T00:19:06;8.00;41.20
55771;DHT22;41687;-33.234;-60.334;2022-08-19T00:21:34;7.90;41.10
55771;DHT22;41687;-33.234;-60.334;2022-08-19T00:24:07;8.00;41.50
55771;DHT22;41687;-33.234;-60.334;2022-08-19T00:26:35;8.00;41.10
55771;DHT22;41687;-33.234;-60.334;2022-08-19T00:29:05;8.00;41.60
55771;DHT22;41687;-33.234;-60.334;2022-08-19T00:31:33;7.90;41.40
55771;DHT22;41687;-33.234;-60.334;2022-08-19T00:34:01;7.80;41.50
55771;DHT22;41687;-33.234;-60.334;2022-08-19T00:36:29;7.80;41.80
55771;DHT22;41687;-33.234;-60.334;2022-08-19T00:39:00;7.80;41.60
55771;DHT22;41687;-33.234;-60.334;2022-08-19T00:41:28;7.80;42.00
55771;DHT22;41687;-33.234;-60.334;2022-08-19T00:44:05;7.80;42.30
55771;DHT22;41687;-33.234;-60.334;2022-08-19T00:46:35;7.80;41.60
55771;DHT22;41687;-33.234;-60.334;2022-08-19T00:49:10;7.70;42.00
55771;DHT22;41687;-33.234;-60.334;2022-08-19T00:51:44;7.70;42.00
55771;DHT22;41687;-33.234;-60.334;2022-08-19T00:54:13;7.60;41.80
55771;DHT22;41687;-33.234;-60.334;2022-08-19T00:56:43;7.50;41.40
55771;DHT22;41687;-33.234;-60.334;2022-08-19T00:59:12;7.50;41.70
55771;DHT22;41687;-33.234;-60.334;2022-08-19T01:01:42;7.40;41.40
55771;DHT22;41687;-33.234;-60.334;2022-08-19T01:04:12;7.40;41.80
55771;DHT22;41687;-33.234;-60.334;2022-08-19T01:06:40;7.40;42.30
55771;DHT22;41687;-33.234;-60.334;2022-08-19T01:09:11;7.30;42.00
55771;DHT22;41687;-33.234;-60.334;2022-08-19T01:11:41;7.20;41.90
55771;DHT22;41687;-33.234;-60.334;2022-08-19T01:14:12;7.20;41.60
55771;DHT22;41687;-33.234;-60.334;2022-08-19T01:16:41;7.10;41.90
55771;DHT22;41687;-33.234;-60.334;2022-08-19T01:19:24;7.10;41.50
55771;DHT22;41687;-33.234;-60.334;2022-08-19T01:24:43;7.10;41.50
55771;DHT22;41687;-33.234;-60.334;2022-08-19T01:27:10;7.20;42.30
55771;DHT22;41687;-33.234;-60.334;2022-08-19T01:29:41;7.20;41.60
55771;DHT22;41687;-33.234;-60.334;2022-08-19T01:32:13;7.10;41.70
55771;DHT22;41687;-33.234;-60.334;2022-08-19T01:34:43;7.20;42.20
55771;DHT22;41687;-33.234;-60.334;2022-08-19T01:37:14;7.20;42.10
55771;DHT22;41687;-33.234;-60.334;2022-08-19T01:39:42;7.20;42.30
55771;DHT22;41687;-33.234;-60.334;2022-08-19T01:42:11;7.20;42.60
55771;DHT22;41687;-33.234;-60.334;2022-08-19T01:44:40;7.20;41.90
55771;DHT22;41687;-33.234;-60.334;2022-08-19T01:47:11;7.10;41.80
55771;DHT22;41687;-33.234;-60.334;2022-08-19T01:49:39;7.20;42.20
55771;DHT22;41687;-33.234;-60.334;2022-08-19T01:52:07;7.20;41.90
55771;DHT22;41687;-33.234;-60.334;2022-08-19T01:54:34;7.20;41.80
55771;DHT22;41687;-33.234;-60.334;2022-08-19T01:57:10;7.20;42.40
55771;DHT22;41687;-33.234;-60.334;2022-08-19T01:59:41;7.20;42.50
55771;DHT22;41687;-33.234;-60.334;2022-08-19T02:02:10;7.20;42.20
55771;DHT22;41687;-33.234;-60.334;2022-08-19T02:04:38;7.20;42.30
55771;DHT22;41687;-33.234;-60.334;2022-08-19T02:07:07;7.10;42.10
55771;DHT22;41687;-33.234;-60.334;2022-08-19T02:09:35;7.10;41.90
55771;DHT22;41687;-33.234;-60.334;2022-08-19T02:12:05;7.00;41.70
55771;DHT22;41687;-33.234;-60.334;2022-08-19T02:14:35;7.00;42.30
55771;DHT22;41687;-33.234;-60.334;2022-08-19T02:17:03;6.90;42.60
55771;DHT22;41687;-33.234;-60.334;2022-08-19T02:19:32;6.90;42.20
55771;DHT22;41687;-33.234;-60.334;2022-08-19T02:22:00;6.70;42.00
55771;DHT22;41687;-33.234;-60.334;2022-08-19T02:24:28;6.70;42.40
55771;DHT22;41687;-33.234;-60.334;2022-08-19T02:26:55;6.70;42.20
55771;DHT22;41687;-33.234;-60.334;2022-08-19T02:29:24;6.70;42.50
55771;DHT22;41687;-33.234;-60.334;2022-08-19T02:31:52;6.70;42.20
55771;DHT22;41687;-33.234;-60.334;2022-08-19T02:34:20;6.70;42.60
55771;DHT22;41687;-33.234;-60.334;2022-08-19T02:36:47;6.60;42.50
55771;DHT22;41687;-33.234;-60.334;2022-08-19T02:39:16;6.70;43.00
55771;DHT22;41687;-33.234;-60.334;2022-08-19T02:41:43;6.70;42.10
55771;DHT22;41687;-33.234;-60.334;2022-08-19T02:44:11;6.60;42.00
55771;DHT22;41687;-33.234;-60.334;2022-08-19T02:46:39;6.60;42.40
55771;DHT22;41687;-33.234;-60.334;2022-08-19T02:49:08;6.60;42.50
55771;DHT22;41687;-33.234;-60.334;2022-08-19T02:51:38;6.50;42.30
55771;DHT22;41687;-33.234;-60.334;2022-08-19T02:54:08;6.60;42.60
55771;DHT22;41687;-33.234;-60.334;2022-08-19T02:56:39;6.60;43.00
55771;DHT22;41687;-33.234;-60.334;2022-08-19T02:59:07;6.60;42.80
55771;DHT22;41687;-33.234;-60.334;2022-08-19T03:01:37;6.50;42.70
55771;DHT22;41687;-33.234;-60.334;2022-08-19T03:04:09;6.50;42.50
55771;DHT22;41687;-33.234;-60.334;2022-08-19T03:06:38;6.50;42.90
55771;DHT22;41687;-33.234;-60.334;2022-08-19T03:09:06;6.60;43.50
55771;DHT22;41687;-33.234;-60.334;2022-08-19T03:11:35;6.60;43.20
55771;DHT22;41687;-33.234;-60.334;2022-08-19T03:14:03;6.50;43.40
55771;DHT22;41687;-33.234;-60.334;2022-08-19T03:16:36;6.50;43.10
55771;DHT22;41687;-33.234;-60.334;2022-08-19T03:19:07;6.60;43.30
55771;DHT22;41687;-33.234;-60.334;2022-08-19T03:21:35;6.60;43.20
55771;DHT22;41687;-33.234;-60.334;2022-08-19T03:24:06;6.60;42.70
55771;DHT22;41687;-33.234;-60.334;2022-08-19T03:26:42;6.60;42.50
55771;DHT22;41687;-33.234;-60.334;2022-08-19T03:29:10;6.50;42.30
55771;DHT22;41687;-33.234;-60.334;2022-08-19T03:31:40;6.50;41.90
55771;DHT22;41687;-33.234;-60.334;2022-08-19T03:34:23;6.40;42.30
55771;DHT22;41687;-33.234;-60.334;2022-08-19T03:36:56;6.50;43.10
55771;DHT22;41687;-33.234;-60.334;2022-08-19T03:39:25;6.50;43.40
55771;DHT22;41687;-33.234;-60.334;2022-08-19T03:41:54;6.40;43.30
55771;DHT22;41687;-33.234;-60.334;2022-08-19T03:44:25;6.40;43.20
55771;DHT22;41687;-33.234;-60.334;2022-08-19T03:46:56;6.40;43.60
55771;DHT22;41687;-33.234;-60.334;2022-08-19T03:49:26;6.50;44.10
55771;DHT22;41687;-33.234;-60.334;2022-08-19T03:51:56;6.50;44.10
55771;DHT22;41687;-33.234;-60.334;2022-08-19T03:54:25;6.60;45.00
55771;DHT22;41687;-33.234;-60.334;2022-08-19T03:56:56;6.60;45.70
55771;DHT22;41687;-33.234;-60.334;2022-08-19T03:59:31;6.70;46.50
55771;DHT22;41687;-33.234;-60.334;2022-08-19T04:02:02;6.70;47.50
55771;DHT22;41687;-33.234;-60.334;2022-08-19T04:04:30;6.70;47.30
55771;DHT22;41687;-33.234;-60.334;2022-08-19T04:06:58;6.70;47.40
55771;DHT22;41687;-33.234;-60.334;2022-08-19T04:09:26;6.70;48.00
55771;DHT22;41687;-33.234;-60.334;2022-08-19T04:11:57;6.70;48.30
55771;DHT22;41687;-33.234;-60.334;2022-08-19T04:14:27;6.70;48.70
55771;DHT22;41687;-33.234;-60.334;2022-08-19T04:16:59;6.70;49.20
55771;DHT22;41687;-33.234;-60.334;2022-08-19T04:19:29;6.70;50.20
55771;DHT22;41687;-33.234;-60.334;2022-08-19T04:21:56;6.70;50.20
55771;DHT22;41687;-33.234;-60.334;2022-08-19T04:24:25;6.60;50.70
55771;DHT22;41687;-33.234;-60.334;2022-08-19T04:26:53;6.60;51.50
55771;DHT22;41687;-33.234;-60.334;2022-08-19T04:29:21;6.70;51.60
55771;DHT22;41687;-33.234;-60.334;2022-08-19T04:31:53;6.60;52.00
55771;DHT22;41687;-33.234;-60.334;2022-08-19T04:34:24;6.70;52.80
55771;DHT22;41687;-33.234;-60.334;2022-08-19T04:36:53;6.70;53.40
55771;DHT22;41687;-33.234;-60.334;2022-08-19T04:39:24;6.60;53.40
55771;DHT22;41687;-33.234;-60.334;2022-08-19T04:42:17;6.60;54.00
55771;DHT22;41687;-33.234;-60.334;2022-08-19T04:45:13;6.60;55.50
55771;DHT22;41687;-33.234;-60.334;2022-08-19T04:47:43;6.60;56.10
55771;DHT22;41687;-33.234;-60.334;2022-08-19T04:50:11;6.60;56.40
55771;DHT22;41687;-33.234;-60.334;2022-08-19T04:52:39;6.60;56.30
55771;DHT22;41687;-33.234;-60.334;2022-08-19T04:55:11;6.70;56.90
55771;DHT22;41687;-33.234;-60.334;2022-08-19T04:57:39;6.60;56.70
55771;DHT22;41687;-33.234;-60.334;2022-08-19T05:00:09;6.60;56.40
55771;DHT22;41687;-33.234;-60.334;2022-08-19T05:02:37;6.60;55.70
55771;DHT22;41687;-33.234;-60.334;2022-08-19T05:05:05;6.50;56.20
55771;DHT22;41687;-33.234;-60.334;2022-08-19T05:07:34;6.50;56.20
55771;DHT22;41687;-33.234;-60.334;2022-08-19T05:10:03;6.40;56.50
55771;DHT22;41687;-33.234;-60.334;2022-08-19T05:12:32;6.40;57.00
55771;DHT22;41687;-33.234;-60.334;2022-08-19T05:15:01;6.40;57.10
55771;DHT22;41687;-33.234;-60.334;2022-08-19T05:17:30;6.40;57.10
55771;DHT22;41687;-33.234;-60.334;2022-08-19T05:19:57;6.40;56.80
55771;DHT22;41687;-33.234;-60.334;2022-08-19T05:22:45;6.30;56.70
55771;DHT22;41687;-33.234;-60.334;2022-08-19T05:25:18;6.30;57.20
55771;DHT22;41687;-33.234;-60.334;2022-08-19T05:27:47;6.30;57.70
55771;DHT22;41687;-33.234;-60.334;2022-08-19T05:30:15;6.30;57.20
55771;DHT22;41687;-33.234;-60.334;2022-08-19T05:32:44;6.30;56.70
55771;DHT22;41687;-33.234;-60.334;2022-08-19T05:35:12;6.30;56.90
55771;DHT22;41687;-33.234;-60.334;2022-08-19T05:37:40;6.30;56.10
55771;DHT22;41687;-33.234;-60.334;2022-08-19T05:40:08;6.30;55.10
55771;DHT22;41687;-33.234;-60.334;2022-08-19T05:42:37;6.30;55.20
55771;DHT22;41687;-33.234;-60.334;2022-08-19T05:45:05;6.40;55.00
55771;DHT22;41687;-33.234;-60.334;2022-08-19T05:47:33;6.30;54.50
55771;DHT22;41687;-33.234;-60.334;2022-08-19T05:50:02;6.40;54.40
55771;DHT22;41687;-33.234;-60.334;2022-08-19T05:52:31;6.30;54.60
55771;DHT22;41687;-33.234;-60.334;2022-08-19T05:54:58;6.30;54.50
55771;DHT22;41687;-33.234;-60.334;2022-08-19T05:57:26;6.30;54.40
55771;DHT22;41687;-33.234;-60.334;2022-08-19T05:59:56;6.20;54.70
55771;DHT22;41687;-33.234;-60.334;2022-08-19T06:02:28;6.30;54.50
55771;DHT22;41687;-33.234;-60.334;2022-08-19T06:04:58;6.20;54.70
55771;DHT22;41687;-33.234;-60.334;2022-08-19T06:07:25;6.20;55.00
55771;DHT22;41687;-33.234;-60.334;2022-08-19T06:09:53;6.10;54.90
55771;DHT22;41687;-33.234;-60.334;2022-08-19T06:12:21;6.10;55.50
55771;DHT22;41687;-33.234;-60.334;2022-08-19T06:15:02;6.10;55.80
55771;DHT22;41687;-33.234;-60.334;2022-08-19T06:17:30;6.10;55.80
55771;DHT22;41687;-33.234;-60.334;2022-08-19T06:19:57;6.10;55.60
55771;DHT22;41687;-33.234;-60.334;2022-08-19T06:22:26;6.10;55.70
55771;DHT22;41687;-33.234;-60.334;2022-08-19T06:24:55;6.10;55.80
55771;DHT22;41687;-33.234;-60.334;2022-08-19T06:27:23;6.10;55.40
55771;DHT22;41687;-33.234;-60.334;2022-08-19T06:29:50;6.00;55.70
55771;DHT22;41687;-33.234;-60.334;2022-08-19T06:32:19;6.00;56.10
55771;DHT22;41687;-33.234;-60.334;2022-08-19T06:34:47;6.00;55.70
55771;DHT22;41687;-33.234;-60.334;2022-08-19T06:37:15;5.90;55.80
55771;DHT22;41687;-33.234;-60.334;2022-08-19T06:39:44;5.80;56.00
55771;DHT22;41687;-33.234;-60.334;2022-08-19T06:42:13;5.90;55.80
55771;DHT22;41687;-33.234;-60.334;2022-08-19T06:44:46;5.80;55.90
55771;DHT22;41687;-33.234;-60.334;2022-08-19T06:47:19;5.80;56.50
55771;DHT22;41687;-33.234;-60.334;2022-08-19T06:49:48;5.80;56.50
55771;DHT22;41687;-33.234;-60.334;2022-08-19T06:52:16;5.70;56.20
55771;DHT22;41687;-33.234;-60.334;2022-08-19T06:54:44;5.60;55.80
55771;DHT22;41687;-33.234;-60.334;2022-08-19T06:57:12;5.50;55.90
55771;DHT22;41687;-33.234;-60.334;2022-08-19T06:59:42;5.30;55.80
55771;DHT22;41687;-33.234;-60.334;2022-08-19T07:02:09;5.20;55.90
55771;DHT22;41687;-33.234;-60.334;2022-08-19T07:04:37;5.10;56.30
55771;DHT22;41687;-33.234;-60.334;2022-08-19T07:07:08;5.00;56.70
55771;DHT22;41687;-33.234;-60.334;2022-08-19T07:09:39;4.90;57.00
55771;DHT22;41687;-33.234;-60.334;2022-08-19T07:12:09;4.80;57.30
55771;DHT22;41687;-33.234;-60.334;2022-08-19T07:14:38;4.80;57.50
55771;DHT22;41687;-33.234;-60.334;2022-08-19T07:17:09;4.80;57.80
55771;DHT22;41687;-33.234;-60.334;2022-08-19T07:19:40;4.80;58.00
55771;DHT22;41687;-33.234;-60.334;2022-08-19T07:22:10;4.80;58.10
55771;DHT22;41687;-33.234;-60.334;2022-08-19T07:24:38;4.70;58.10
55771;DHT22;41687;-33.234;-60.334;2022-08-19T07:27:07;4.70;58.20
55771;DHT22;41687;-33.234;-60.334;2022-08-19T07:29:36;4.70;58.50
55771;DHT22;41687;-33.234;-60.334;2022-08-19T07:32:05;4.60;58.10
55771;DHT22;41687;-33.234;-60.334;2022-08-19T07:34:34;4.70;57.80
55771;DHT22;41687;-33.234;-60.334;2022-08-19T07:37:05;4.70;58.00
55771;DHT22;41687;-33.234;-60.334;2022-08-19T07:39:35;4.70;57.20
55771;DHT22;41687;-33.234;-60.334;2022-08-19T07:42:08;4.70;57.20
55771;DHT22;41687;-33.234;-60.334;2022-08-19T07:44:38;4.70;56.40
55771;DHT22;41687;-33.234;-60.334;2022-08-19T07:47:05;4.80;57.20
55771;DHT22;41687;-33.234;-60.334;2022-08-19T07:49:36;4.80;55.80
55771;DHT22;41687;-33.234;-60.334;2022-08-19T07:52:07;4.80;55.70
55771;DHT22;41687;-33.234;-60.334;2022-08-19T07:54:37;4.80;55.70
55771;DHT22;41687;-33.234;-60.334;2022-08-19T07:57:06;4.80;55.80
55771;DHT22;41687;-33.234;-60.334;2022-08-19T07:59:34;4.80;54.90
55771;DHT22;41687;-33.234;-60.334;2022-08-19T08:02:04;4.80;54.70
55771;DHT22;41687;-33.234;-60.334;2022-08-19T08:04:32;4.70;54.60
55771;DHT22;41687;-33.234;-60.334;2022-08-19T08:07:19;4.70;54.60
55771;DHT22;41687;-33.234;-60.334;2022-08-19T08:10:06;4.60;53.70
55771;DHT22;41687;-33.234;-60.334;2022-08-19T08:12:39;4.60;53.90
55771;DHT22;41687;-33.234;-60.334;2022-08-19T08:15:12;4.60;53.70
55771;DHT22;41687;-33.234;-60.334;2022-08-19T08:17:44;4.60;54.10
55771;DHT22;41687;-33.234;-60.334;2022-08-19T08:20:12;4.60;54.00
55771;DHT22;41687;-33.234;-60.334;2022-08-19T08:22:45;4.50;53.70
55771;DHT22;41687;-33.234;-60.334;2022-08-19T08:25:31;4.60;53.50
55771;DHT22;41687;-33.234;-60.334;2022-08-19T08:27:59;4.60;53.30
55771;DHT22;41687;-33.234;-60.334;2022-08-19T08:30:30;4.70;53.00
55771;DHT22;41687;-33.234;-60.334;2022-08-19T08:32:59;4.60;52.70
55771;DHT22;41687;-33.234;-60.334;2022-08-19T08:35:27;4.70;53.00
55771;DHT22;41687;-33.234;-60.334;2022-08-19T08:37:56;4.70;52.60
55771;DHT22;41687;-33.234;-60.334;2022-08-19T08:40:27;4.60;52.60
55771;DHT22;41687;-33.234;-60.334;2022-08-19T08:46:00;4.80;52.40
55771;DHT22;41687;-33.234;-60.334;2022-08-19T08:48:54;4.60;51.90
55771;DHT22;41687;-33.234;-60.334;2022-08-19T08:51:37;4.70;52.60
55771;DHT22;41687;-33.234;-60.334;2022-08-19T08:54:12;4.60;52.80
55771;DHT22;41687;-33.234;-60.334;2022-08-19T08:56:45;4.70;52.90
55771;DHT22;41687;-33.234;-60.334;2022-08-19T09:01:53;4.50;53.00
55771;DHT22;41687;-33.234;-60.334;2022-08-19T09:04:20;4.40;53.40
55771;DHT22;41687;-33.234;-60.334;2022-08-19T09:09:48;4.40;54.20
55771;DHT22;41687;-33.234;-60.334;2022-08-19T09:12:38;4.50;54.00
55771;DHT22;41687;-33.234;-60.334;2022-08-19T09:15:11;4.40;54.20
55771;DHT22;41687;-33.234;-60.334;2022-08-19T09:17:40;4.50;54.70
55771;DHT22;41687;-33.234;-60.334;2022-08-19T09:22:42;4.60;55.10
55771;DHT22;41687;-33.234;-60.334;2022-08-19T09:25:21;4.60;54.90
55771;DHT22;41687;-33.234;-60.334;2022-08-19T09:27:52;4.50;55.30
55771;DHT22;41687;-33.234;-60.334;2022-08-19T09:30:34;4.50;55.20
55771;DHT22;41687;-33.234;-60.334;2022-08-19T09:33:07;4.50;55.20
55771;DHT22;41687;-33.234;-60.334;2022-08-19T09:35:35;4.40;55.00
55771;DHT22;41687;-33.234;-60.334;2022-08-19T09:38:03;4.30;55.40
55771;DHT22;41687;-33.234;-60.334;2022-08-19T09:40:31;4.20;55.10
55771;DHT22;41687;-33.234;-60.334;2022-08-19T09:42:59;4.30;55.10
55771;DHT22;41687;-33.234;-60.334;2022-08-19T09:45:29;4.30;54.10
55771;DHT22;41687;-33.234;-60.334;2022-08-19T09:47:57;4.30;53.60
55771;DHT22;41687;-33.234;-60.334;2022-08-19T09:50:26;4.30;53.10
55771;DHT22;41687;-33.234;-60.334;2022-08-19T09:52:53;4.20;53.50
55771;DHT22;41687;-33.234;-60.334;2022-08-19T09:55:21;4.20;53.30
55771;DHT22;41687;-33.234;-60.334;2022-08-19T09:57:49;4.30;53.00
55771;DHT22;41687;-33.234;-60.334;2022-08-19T10:00:17;4.30;52.30
55771;DHT22;41687;-33.234;-60.334;2022-08-19T10:02:45;4.30;51.70
55771;DHT22;41687;-33.234;-60.334;2022-08-19T10:05:12;4.20;51.60
55771;DHT22;41687;-33.234;-60.334;2022-08-19T10:07:58;4.20;51.70
55771;DHT22;41687;-33.234;-60.334;2022-08-19T10:10:27;4.00;51.00
55771;DHT22;41687;-33.234;-60.334;2022-08-19T10:12:55;4.00;51.00
55771;DHT22;41687;-33.234;-60.334;2022-08-19T10:15:23;3.90;50.90
55771;DHT22;41687;-33.234;-60.334;2022-08-19T10:17:51;3.80;50.60
55771;DHT22;41687;-33.234;-60.334;2022-08-19T10:20:18;3.80;50.50
55771;DHT22;41687;-33.234;-60.334;2022-08-19T10:22:46;3.80;50.60
55771;DHT22;41687;-33.234;-60.334;2022-08-19T10:25:14;3.80;50.70
55771;DHT22;41687;-33.234;-60.334;2022-08-19T10:27:45;3.90;50.50
55771;DHT22;41687;-33.234;-60.334;2022-08-19T10:30:13;4.00;50.70
55771;DHT22;41687;-33.234;-60.334;2022-08-19T10:32:41;4.10;50.60
55771;DHT22;41687;-33.234;-60.334;2022-08-19T10:35:09;4.10;50.10
55771;DHT22;41687;-33.234;-60.334;2022-08-19T10:37:37;4.10;50.30
55771;DHT22;41687;-33.234;-60.334;2022-08-19T10:40:06;4.10;51.30
55771;DHT22;41687;-33.234;-60.334;2022-08-19T10:42:35;4.20;51.00
55771;DHT22;41687;-33.234;-60.334;2022-08-19T10:45:05;4.20;51.10
55771;DHT22;41687;-33.234;-60.334;2022-08-19T10:47:34;4.30;51.60
55771;DHT22;41687;-33.234;-60.334;2022-08-19T10:50:02;4.20;52.00
55771;DHT22;41687;-33.234;-60.334;2022-08-19T10:52:49;4.20;52.40
55771;DHT22;41687;-33.234;-60.334;2022-08-19T10:55:20;4.30;53.20
55771;DHT22;41687;-33.234;-60.334;2022-08-19T10:58:15;4.40;53.50
55771;DHT22;41687;-33.234;-60.334;2022-08-19T11:00:50;4.50;54.60
55771;DHT22;41687;-33.234;-60.334;2022-08-19T11:03:18;4.60;54.00
55771;DHT22;41687;-33.234;-60.334;2022-08-19T11:05:46;4.70;53.70
55771;DHT22;41687;-33.234;-60.334;2022-08-19T11:08:15;4.90;53.60
55771;DHT22;41687;-33.234;-60.334;2022-08-19T11:10:43;5.10;53.30
55771;DHT22;41687;-33.234;-60.334;2022-08-19T11:13:12;5.70;53.80
55771;DHT22;41687;-33.234;-60.334;2022-08-19T11:15:40;7.10;51.70
55771;DHT22;41687;-33.234;-60.334;2022-08-19T11:18:08;8.80;48.90
55771;DHT22;41687;-33.234;-60.334;2022-08-19T11:20:35;9.50;47.40
55771;DHT22;41687;-33.234;-60.334;2022-08-19T11:23:04;10.70;46.90
55771;DHT22;41687;-33.234;-60.334;2022-08-19T11:25:32;12.30;45.10
55771;DHT22;41687;-33.234;-60.334;2022-08-19T11:28:01;13.00;44.20
55771;DHT22;41687;-33.234;-60.334;2022-08-19T11:30:29;13.30;44.10
55771;DHT22;41687;-33.234;-60.334;2022-08-19T11:32:57;14.50;43.60
55771;DHT22;41687;-33.234;-60.334;2022-08-19T11:35:27;15.80;42.80
55771;DHT22;41687;-33.234;-60.334;2022-08-19T11:37:55;16.70;41.40
55771;DHT22;41687;-33.234;-60.334;2022-08-19T11:40:25;17.70;40.30
55771;DHT22;41687;-33.234;-60.334;2022-08-19T11:42:52;18.30;40.20
55771;DHT22;41687;-33.234;-60.334;2022-08-19T11:45:26;18.90;39.50
55771;DHT22;41687;-33.234;-60.334;2022-08-19T11:47:55;19.20;38.80
55771;DHT22;41687;-33.234;-60.334;2022-08-19T11:50:24;19.20;38.40
55771;DHT22;41687;-33.234;-60.334;2022-08-19T11:52:55;19.00;38.10
55771;DHT22;41687;-33.234;-60.334;2022-08-19T11:55:24;18.70;38.10
55771;DHT22;41687;-33.234;-60.334;2022-08-19T11:57:52;18.50;38.20
55771;DHT22;41687;-33.234;-60.334;2022-08-19T12:00:19;18.30;38.30
55771;DHT22;41687;-33.234;-60.334;2022-08-19T12:02:48;17.90;38.60
55771;DHT22;41687;-33.234;-60.334;2022-08-19T12:05:16;17.60;39.10
55771;DHT22;41687;-33.234;-60.334;2022-08-19T12:07:44;17.20;39.20
55771;DHT22;41687;-33.234;-60.334;2022-08-19T12:10:12;17.10;39.70
55771;DHT22;41687;-33.234;-60.334;2022-08-19T12:12:41;17.10;39.60
55771;DHT22;41687;-33.234;-60.334;2022-08-19T12:15:10;16.90;40.00
55771;DHT22;41687;-33.234;-60.334;2022-08-19T12:17:38;16.90;40.10
55771;DHT22;41687;-33.234;-60.334;2022-08-19T12:20:08;16.90;39.90
55771;DHT22;41687;-33.234;-60.334;2022-08-19T12:22:38;16.90;39.50
55771;DHT22;41687;-33.234;-60.334;2022-08-19T12:25:10;16.80;39.10
55771;DHT22;41687;-33.234;-60.334;2022-08-19T12:27:39;16.80;39.00
55771;DHT22;41687;-33.234;-60.334;2022-08-19T12:30:07;16.80;38.80
55771;DHT22;41687;-33.234;-60.334;2022-08-19T12:32:36;16.80;39.00
55771;DHT22;41687;-33.234;-60.334;2022-08-19T12:35:04;16.70;39.70
55771;DHT22;41687;-33.234;-60.334;2022-08-19T12:37:32;16.70;38.70
55771;DHT22;41687;-33.234;-60.334;2022-08-19T12:40:00;16.70;38.70
55771;DHT22;41687;-33.234;-60.334;2022-08-19T12:42:30;16.80;39.20
55771;DHT22;41687;-33.234;-60.334;2022-08-19T12:44:57;16.90;39.40
55771;DHT22;41687;-33.234;-60.334;2022-08-19T12:47:25;17.00;38.90
55771;DHT22;41687;-33.234;-60.334;2022-08-19T12:49:53;17.00;38.80
55771;DHT22;41687;-33.234;-60.334;2022-08-19T12:52:23;17.00;38.80
55771;DHT22;41687;-33.234;-60.334;2022-08-19T12:54:53;17.00;38.70
55771;DHT22;41687;-33.234;-60.334;2022-08-19T12:57:22;17.10;38.10
55771;DHT22;41687;-33.234;-60.334;2022-08-19T12:59:52;17.20;38.60
55771;DHT22;41687;-33.234;-60.334;2022-08-19T13:02:21;17.40;37.20
55771;DHT22;41687;-33.234;-60.334;2022-08-19T13:04:49;17.20;38.40
55771;DHT22;41687;-33.234;-60.334;2022-08-19T13:07:17;17.50;38.50
55771;DHT22;41687;-33.234;-60.334;2022-08-19T13:09:45;17.60;38.20
55771;DHT22;41687;-33.234;-60.334;2022-08-19T13:12:13;17.70;37.70
55771;DHT22;41687;-33.234;-60.334;2022-08-19T13:14:40;17.90;37.40
55771;DHT22;41687;-33.234;-60.334;2022-08-19T13:17:08;17.90;36.50
55771;DHT22;41687;-33.234;-60.334;2022-08-19T13:19:38;17.80;36.10
55771;DHT22;41687;-33.234;-60.334;2022-08-19T13:22:07;17.80;36.20
55771;DHT22;41687;-33.234;-60.334;2022-08-19T13:24:35;17.80;35.80
55771;DHT22;41687;-33.234;-60.334;2022-08-19T13:27:04;17.60;35.30
55771;DHT22;41687;-33.234;-60.334;2022-08-19T13:29:32;17.50;35.20
55771;DHT22;41687;-33.234;-60.334;2022-08-19T13:32:19;17.40;35.60
55771;DHT22;41687;-33.234;-60.334;2022-08-19T13:35:05;17.20;34.50
55771;DHT22;41687;-33.234;-60.334;2022-08-19T13:37:34;17.10;35.80
55771;DHT22;41687;-33.234;-60.334;2022-08-19T13:40:14;17.00;35.00
55771;DHT22;41687;-33.234;-60.334;2022-08-19T13:42:46;16.90;34.90
55771;DHT22;41687;-33.234;-60.334;2022-08-19T13:45:16;16.90;34.40
55771;DHT22;41687;-33.234;-60.334;2022-08-19T13:47:49;16.80;34.50
55771;DHT22;41687;-33.234;-60.334;2022-08-19T13:50:21;16.70;33.70
55771;DHT22;41687;-33.234;-60.334;2022-08-19T13:52:50;16.60;34.80
55771;DHT22;41687;-33.234;-60.334;2022-08-19T13:55:18;16.60;35.10
55771;DHT22;41687;-33.234;-60.334;2022-08-19T13:57:48;16.60;35.10
55771;DHT22;41687;-33.234;-60.334;2022-08-19T14:00:18;16.50;35.00
55771;DHT22;41687;-33.234;-60.334;2022-08-19T14:02:48;16.30;35.30
55771;DHT22;41687;-33.234;-60.334;2022-08-19T14:05:19;16.40;35.60
55771;DHT22;41687;-33.234;-60.334;2022-08-19T14:07:47;16.40;35.90
55771;DHT22;41687;-33.234;-60.334;2022-08-19T14:10:15;16.30;35.90
55771;DHT22;41687;-33.234;-60.334;2022-08-19T14:12:43;16.20;34.80
55771;DHT22;41687;-33.234;-60.334;2022-08-19T14:15:13;16.10;35.30
55771;DHT22;41687;-33.234;-60.334;2022-08-19T14:17:43;15.80;34.00
55771;DHT22;41687;-33.234;-60.334;2022-08-19T14:20:12;15.90;35.10
55771;DHT22;41687;-33.234;-60.334;2022-08-19T14:22:41;15.80;34.60
55771;DHT22;41687;-33.234;-60.334;2022-08-19T14:25:12;15.80;35.40
55771;DHT22;41687;-33.234;-60.334;2022-08-19T14:27:41;15.80;35.30
55771;DHT22;41687;-33.234;-60.334;2022-08-19T14:30:13;15.70;35.20
55771;DHT22;41687;-33.234;-60.334;2022-08-19T14:32:42;15.70;35.10
55771;DHT22;41687;-33.234;-60.334;2022-08-19T14:35:14;15.70;36.80
55771;DHT22;41687;-33.234;-60.334;2022-08-19T14:37:44;15.70;35.50
55771;DHT22;41687;-33.234;-60.334;2022-08-19T14:40:16;15.80;35.40
55771;DHT22;41687;-33.234;-60.334;2022-08-19T14:42:47;15.40;34.30
55771;DHT22;41687;-33.234;-60.334;2022-08-19T14:45:15;15.30;35.50
55771;DHT22;41687;-33.234;-60.334;2022-08-19T14:47:43;15.40;35.70
55771;DHT22;41687;-33.234;-60.334;2022-08-19T14:50:11;15.20;35.20
55771;DHT22;41687;-33.234;-60.334;2022-08-19T14:52:39;15.10;34.50
55771;DHT22;41687;-33.234;-60.334;2022-08-19T14:55:07;15.10;35.10
55771;DHT22;41687;-33.234;-60.334;2022-08-19T14:57:36;15.10;35.10
55771;DHT22;41687;-33.234;-60.334;2022-08-19T15:00:03;15.10;36.10
55771;DHT22;41687;-33.234;-60.334;2022-08-19T15:02:31;15.20;36.00
55771;DHT22;41687;-33.234;-60.334;2022-08-19T15:04:58;15.20;35.50
55771;DHT22;41687;-33.234;-60.334;2022-08-19T15:07:27;15.20;35.50
55771;DHT22;41687;-33.234;-60.334;2022-08-19T15:09:56;15.20;35.40
55771;DHT22;41687;-33.234;-60.334;2022-08-19T15:12:24;15.10;35.40
55771;DHT22;41687;-33.234;-60.334;2022-08-19T15:14:52;15.10;36.20
55771;DHT22;41687;-33.234;-60.334;2022-08-19T15:17:20;15.00;35.30
55771;DHT22;41687;-33.234;-60.334;2022-08-19T15:19:48;15.00;36.40
55771;DHT22;41687;-33.234;-60.334;2022-08-19T15:22:16;15.10;36.30
55771;DHT22;41687;-33.234;-60.334;2022-08-19T15:24:43;15.10;36.20
55771;DHT22;41687;-33.234;-60.334;2022-08-19T15:27:14;15.10;36.40
55771;DHT22;41687;-33.234;-60.334;2022-08-19T15:29:41;15.00;36.40